createdAt,value
2023-04-20T00:00:25.000Z,1024.4
2023-04-20T00:01:40.000Z,1024.3
2023-04-20T00:02:56.000Z,1024.3
2023-04-20T00:04:12.000Z,1024.4
2023-04-20T00:05:28.000Z,1024.3
2023-04-20T00:06:44.000Z,1024.3
2023-04-20T00:08:00.000Z,1024.3
2023-04-20T00:09:16.000Z,1024.3
2023-04-20T00:10:32.000Z,1024.3
2023-04-20T00:11:49.000Z,1024.2
2023-04-20T00:13:05.000Z,1024.2
2023-04-20T00:14:21.000Z,1024.3
2023-04-20T00:15:37.000Z,1024.2
2023-04-20T00:16:53.000Z,1024.1
2023-04-20T00:18:09.000Z,1024.1
2023-04-20T00:19:24.000Z,1024.2
2023-04-20T00:20:41.345Z,1024.1
2023-04-20T00:21:57.000Z,1024.1
2023-04-20T00:23:13.000Z,1024
2023-04-20T00:24:29.000Z,1024
2023-04-20T00:25:45.000Z,1024
2023-04-20T00:27:01.000Z,1024
2023-04-20T00:28:17.000Z,1024
2023-04-20T00:29:32.000Z,1024.1
2023-04-20T00:30:48.000Z,1024
2023-04-20T00:32:04.000Z,1024
2023-04-20T00:33:20.000Z,1024
2023-04-20T00:34:36.000Z,1024
2023-04-20T00:35:52.000Z,1023.9
2023-04-20T00:37:09.000Z,1023.9
2023-04-20T00:38:25.000Z,1023.9
2023-04-20T00:39:41.000Z,1023.9
2023-04-20T00:40:57.000Z,1023.9
2023-04-20T00:42:13.000Z,1023.8
2023-04-20T00:43:29.000Z,1023.9
2023-04-20T00:44:45.000Z,1023.8
2023-04-20T00:46:01.346Z,1023.8
2023-04-20T00:47:17.000Z,1023.8
2023-04-20T00:48:33.000Z,1023.8
2023-04-20T00:49:49.000Z,1023.8
2023-04-20T00:51:05.000Z,1023.8
2023-04-20T00:52:21.000Z,1023.8
2023-04-20T00:53:38.000Z,1023.8
2023-04-20T00:54:53.000Z,1023.8
2023-04-20T00:56:08.000Z,1023.8
2023-04-20T00:57:23.000Z,1023.7
2023-04-20T00:58:38.000Z,1023.7
2023-04-20T00:59:54.000Z,1023.8
2023-04-20T01:01:10.000Z,1023.8
2023-04-20T01:02:27.000Z,1023.7
2023-04-20T01:03:43.000Z,1023.6
2023-04-20T01:04:58.000Z,1023.7
2023-04-20T01:06:14.000Z,1023.7
2023-04-20T01:07:30.000Z,1023.7
2023-04-20T01:08:46.000Z,1023.6
2023-04-20T01:10:03.000Z,1023.7
2023-04-20T01:11:19.392Z,1023.6
2023-04-20T01:12:35.000Z,1023.6
2023-04-20T01:13:51.000Z,1023.6
2023-04-20T01:15:07.000Z,1023.6
2023-04-20T01:16:23.000Z,1023.6
2023-04-20T01:17:39.000Z,1023.6
2023-04-20T01:18:56.000Z,1023.6
2023-04-20T01:20:12.000Z,1023.6
2023-04-20T01:21:27.000Z,1023.6
2023-04-20T01:22:43.000Z,1023.5
2023-04-20T01:23:58.000Z,1023.5
2023-04-20T01:25:13.000Z,1023.5
2023-04-20T01:26:29.000Z,1023.4
2023-04-20T01:27:44.000Z,1023.5
2023-04-20T01:29:00.000Z,1023.4
2023-04-20T01:30:16.000Z,1023.5
2023-04-20T01:31:32.000Z,1023.5
2023-04-20T01:32:48.000Z,1023.4
2023-04-20T01:34:04.000Z,1023.5
2023-04-20T01:35:21.000Z,1023.5
2023-04-20T01:36:37.000Z,1023.4
2023-04-20T01:37:53.574Z,1023.4
2023-04-20T01:39:09.000Z,1023.4
2023-04-20T01:40:25.000Z,1023.4
2023-04-20T01:41:41.000Z,1023.4
2023-04-20T01:42:57.000Z,1023.4
2023-04-20T01:44:13.000Z,1023.4
2023-04-20T01:45:29.000Z,1023.4
2023-04-20T01:46:45.000Z,1023.2
2023-04-20T01:48:01.000Z,1023.3
2023-04-20T01:49:17.000Z,1023.3
2023-04-20T01:50:33.000Z,1023.3
2023-04-20T01:51:49.000Z,1023.2
2023-04-20T01:53:05.000Z,1023.3
2023-04-20T01:54:20.541Z,1023.2
2023-04-20T01:55:36.000Z,1023.3
2023-04-20T01:56:52.000Z,1023.3
2023-04-20T01:58:08.000Z,1023.2
2023-04-20T01:59:24.000Z,1023.3
2023-04-20T02:00:41.000Z,1023.3
2023-04-20T02:01:57.000Z,1023.2
2023-04-20T02:03:13.000Z,1023.2
2023-04-20T02:04:29.000Z,1023.2
2023-04-20T02:05:45.000Z,1023.3
2023-04-20T02:07:01.000Z,1023.2
2023-04-20T02:08:17.000Z,1023.3
2023-04-20T02:09:34.000Z,1023.2
2023-04-20T02:10:49.000Z,1023.2
2023-04-20T02:12:05.000Z,1023.2
2023-04-20T02:13:21.000Z,1023.1
2023-04-20T02:14:37.000Z,1023.1
2023-04-20T02:15:53.000Z,1023.2
2023-04-20T02:17:09.000Z,1023.2
2023-04-20T02:18:26.000Z,1023.1
2023-04-20T02:19:41.000Z,1023.1
2023-04-20T02:20:56.000Z,1023
2023-04-20T02:22:11.000Z,1023
2023-04-20T02:23:26.000Z,1023
2023-04-20T02:24:42.000Z,1023
2023-04-20T02:25:59.000Z,1023.1
2023-04-20T02:27:15.000Z,1023
2023-04-20T02:28:31.000Z,1023
2023-04-20T02:29:47.000Z,1023
2023-04-20T02:31:03.000Z,1022.9
2023-04-20T02:32:19.000Z,1022.9
2023-04-20T02:33:35.000Z,1022.9
2023-04-20T02:34:52.000Z,1022.9
2023-04-20T02:36:08.000Z,1022.9
2023-04-20T02:37:24.000Z,1022.8
2023-04-20T02:38:40.000Z,1022.9
2023-04-20T02:39:55.000Z,1022.8
2023-04-20T02:41:11.000Z,1022.9
2023-04-20T02:42:28.000Z,1022.8
2023-04-20T02:43:44.000Z,1022.9
2023-04-20T02:45:00.000Z,1022.9
2023-04-20T02:46:16.000Z,1022.9
2023-04-20T02:47:32.000Z,1022.8
2023-04-20T02:48:47.000Z,1022.9
2023-04-20T02:50:02.000Z,1022.9
2023-04-20T02:51:19.000Z,1022.9
2023-04-20T02:52:34.000Z,1022.9
2023-04-20T02:53:49.000Z,1022.8
2023-04-20T02:55:05.000Z,1022.9
2023-04-20T02:56:21.000Z,1022.8
2023-04-20T02:57:37.000Z,1022.8
2023-04-20T02:58:54.000Z,1022.9
2023-04-20T03:00:10.000Z,1022.9
2023-04-20T03:01:26.000Z,1022.8
2023-04-20T03:02:42.000Z,1022.8
2023-04-20T03:03:58.000Z,1022.9
2023-04-20T03:05:14.000Z,1022.9
2023-04-20T03:06:30.000Z,1022.8
2023-04-20T03:07:47.000Z,1022.8
2023-04-20T03:09:03.000Z,1022.8
2023-04-20T03:10:18.000Z,1022.7
2023-04-20T03:11:34.000Z,1022.8
2023-04-20T03:12:50.000Z,1022.8
2023-04-20T03:14:06.000Z,1022.7
2023-04-20T03:15:22.000Z,1022.7
2023-04-20T03:16:39.000Z,1022.8
2023-04-20T03:17:55.000Z,1022.7
2023-04-20T03:20:26.000Z,1022.7
2023-04-20T03:21:41.000Z,1022.7
2023-04-20T03:22:56.000Z,1022.7
2023-04-20T03:24:12.000Z,1022.6
2023-04-20T03:25:27.000Z,1022.8
2023-04-20T03:26:43.000Z,1022.7
2023-04-20T03:27:59.000Z,1022.7
2023-04-20T03:29:15.000Z,1022.7
2023-04-20T03:30:31.000Z,1022.7
2023-04-20T03:31:47.000Z,1022.7
2023-04-20T03:33:04.000Z,1022.6
2023-04-20T03:34:20.000Z,1022.6
2023-04-20T03:35:36.000Z,1022.5
2023-04-20T03:36:52.000Z,1022.6
2023-04-20T03:38:08.000Z,1022.5
2023-04-20T03:39:24.000Z,1022.6
2023-04-20T03:40:41.000Z,1022.6
2023-04-20T03:41:56.000Z,1022.5
2023-04-20T03:43:12.000Z,1022.6
2023-04-20T03:44:28.000Z,1022.6
2023-04-20T03:45:44.000Z,1022.6
2023-04-20T03:47:00.000Z,1022.5
2023-04-20T03:48:16.000Z,1022.5
2023-04-20T03:49:33.000Z,1022.5
2023-04-20T03:50:48.000Z,1022.5
2023-04-20T03:53:20.000Z,1022.5
2023-04-20T03:54:35.000Z,1022.6
2023-04-20T03:55:51.000Z,1022.5
2023-04-20T03:57:07.000Z,1022.5
2023-04-20T03:58:22.391Z,1022.5
2023-04-20T03:59:38.000Z,1022.5
2023-04-20T04:00:54.000Z,1022.5
2023-04-20T04:02:10.000Z,1022.5
2023-04-20T04:03:26.000Z,1022.6
2023-04-20T04:04:42.000Z,1022.5
2023-04-20T04:05:59.000Z,1022.5
2023-04-20T04:07:15.000Z,1022.5
2023-04-20T04:08:31.000Z,1022.5
2023-04-20T04:09:47.714Z,1022.5
2023-04-20T04:11:03.000Z,1022.5
2023-04-20T04:12:19.000Z,1022.5
2023-04-20T04:13:35.000Z,1022.4
2023-04-20T04:14:51.000Z,1022.5
2023-04-20T04:16:07.000Z,1022.5
2023-04-20T04:17:23.000Z,1022.5
2023-04-20T04:18:39.000Z,1022.4
2023-04-20T04:19:55.000Z,1022.5
2023-04-20T04:22:27.000Z,1022.5
2023-04-20T04:23:44.343Z,1022.4
2023-04-20T04:24:59.000Z,1022.4
2023-04-20T04:26:14.000Z,1022.5
2023-04-20T04:27:29.000Z,1022.5
2023-04-20T04:28:44.000Z,1022.4
2023-04-20T04:30:00.000Z,1022.4
2023-04-20T04:31:17.000Z,1022.4
2023-04-20T04:32:33.000Z,1022.5
2023-04-20T04:33:49.000Z,1022.4
2023-04-20T04:35:05.000Z,1022.4
2023-04-20T04:36:21.000Z,1022.5
2023-04-20T04:37:37.000Z,1022.5
2023-04-20T04:38:53.000Z,1022.5
2023-04-20T04:40:10.000Z,1022.5
2023-04-20T04:41:26.000Z,1022.5
2023-04-20T04:42:42.000Z,1022.5
2023-04-20T04:43:58.000Z,1022.5
2023-04-20T04:46:29.000Z,1022.5
2023-04-20T04:47:46.000Z,1022.4
2023-04-20T04:49:02.000Z,1022.5
2023-04-20T04:50:18.000Z,1022.4
2023-04-20T04:51:34.000Z,1022.4
2023-04-20T04:52:50.000Z,1022.5
2023-04-20T04:54:06.000Z,1022.5
2023-04-20T04:55:21.000Z,1022.4
2023-04-20T04:56:37.000Z,1022.5
2023-04-20T04:57:53.000Z,1022.5
2023-04-20T04:59:09.000Z,1022.5
2023-04-20T05:00:24.000Z,1022.4
2023-04-20T05:01:39.000Z,1022.5
2023-04-20T05:02:55.000Z,1022.5
2023-04-20T05:04:12.000Z,1022.5
2023-04-20T05:05:28.000Z,1022.5
2023-04-20T05:06:44.000Z,1022.5
2023-04-20T05:08:00.000Z,1022.4
2023-04-20T05:09:16.000Z,1022.5
2023-04-20T05:10:32.000Z,1022.5
2023-04-20T05:11:48.000Z,1022.5
2023-04-20T05:13:05.000Z,1022.5
2023-04-20T05:14:21.407Z,1022.5
2023-04-20T05:15:37.000Z,1022.5
2023-04-20T05:16:53.000Z,1022.5
2023-04-20T05:18:08.000Z,1022.5
2023-04-20T05:19:23.000Z,1022.5
2023-04-20T05:20:39.000Z,1022.6
2023-04-20T05:21:56.000Z,1022.5
2023-04-20T05:23:12.000Z,1022.5
2023-04-20T05:24:28.000Z,1022.5
2023-04-20T05:25:44.000Z,1022.5
2023-04-20T05:26:59.000Z,1022.5
2023-04-20T05:28:14.000Z,1022.5
2023-04-20T05:29:31.000Z,1022.5
2023-04-20T05:30:46.000Z,1022.4
2023-04-20T05:32:01.000Z,1022.4
2023-04-20T05:33:17.000Z,1022.5
2023-04-20T05:34:33.000Z,1022.5
2023-04-20T05:35:49.000Z,1022.5
2023-04-20T05:37:05.000Z,1022.5
2023-04-20T05:39:38.000Z,1022.5
2023-04-20T05:40:54.000Z,1022.5
2023-04-20T05:42:10.000Z,1022.6
2023-04-20T05:44:42.000Z,1022.5
2023-04-20T05:45:58.000Z,1022.5
2023-04-20T05:47:14.000Z,1022.6
2023-04-20T05:48:29.000Z,1022.6
2023-04-20T05:49:45.000Z,1022.5
2023-04-20T05:51:01.000Z,1022.6
2023-04-20T05:52:17.000Z,1022.6
2023-04-20T05:53:33.000Z,1022.5
2023-04-20T05:54:50.000Z,1022.5
2023-04-20T05:56:06.000Z,1022.6
2023-04-20T05:57:22.000Z,1022.5
2023-04-20T05:59:54.000Z,1022.6
2023-04-20T06:01:10.000Z,1022.6
2023-04-20T06:02:26.000Z,1022.6
2023-04-20T06:03:43.000Z,1022.5
2023-04-20T06:04:58.000Z,1022.6
2023-04-20T06:06:14.000Z,1022.6
2023-04-20T06:07:30.000Z,1022.6
2023-04-20T06:08:46.000Z,1022.6
2023-04-20T06:10:02.000Z,1022.6
2023-04-20T06:11:18.000Z,1022.6
2023-04-20T06:12:35.000Z,1022.6
2023-04-20T06:13:51.000Z,1022.6
2023-04-20T06:15:06.000Z,1022.6
2023-04-20T06:16:21.000Z,1022.7
2023-04-20T06:17:37.000Z,1022.6
2023-04-20T06:18:53.000Z,1022.7
2023-04-20T06:20:10.000Z,1022.6
2023-04-20T06:21:26.000Z,1022.6
2023-04-20T06:22:41.000Z,1022.7
2023-04-20T06:23:56.000Z,1022.6
2023-04-20T06:25:12.000Z,1022.7
2023-04-20T06:26:28.000Z,1022.7
2023-04-20T06:27:44.000Z,1022.7
2023-04-20T06:29:01.000Z,1022.6
2023-04-20T06:31:33.000Z,1022.6
2023-04-20T06:32:49.000Z,1022.6
2023-04-20T06:34:05.000Z,1022.6
2023-04-20T06:35:21.000Z,1022.6
2023-04-20T06:36:38.000Z,1022.6
2023-04-20T06:37:54.000Z,1022.6
2023-04-20T06:39:10.000Z,1022.6
2023-04-20T06:40:25.000Z,1022.6
2023-04-20T06:41:41.000Z,1022.6
2023-04-20T06:42:57.000Z,1022.6
2023-04-20T06:44:13.000Z,1022.6
2023-04-20T06:45:30.000Z,1022.6
2023-04-20T06:46:46.000Z,1022.6
2023-04-20T06:48:02.000Z,1022.7
2023-04-20T06:49:18.000Z,1022.7
2023-04-20T06:50:33.000Z,1022.7
2023-04-20T06:51:48.000Z,1022.7
2023-04-20T06:53:04.000Z,1022.7
2023-04-20T06:54:19.000Z,1022.6
2023-04-20T06:55:35.000Z,1022.7
2023-04-20T06:56:51.000Z,1022.6
2023-04-20T06:58:07.000Z,1022.7
2023-04-20T06:59:23.000Z,1022.7
2023-04-20T07:00:39.000Z,1022.7
2023-04-20T07:01:56.000Z,1022.7
2023-04-20T07:03:12.000Z,1022.7
2023-04-20T07:04:28.000Z,1022.7
2023-04-20T07:05:44.000Z,1022.7
2023-04-20T07:07:00.000Z,1022.6
2023-04-20T07:08:16.000Z,1022.7
2023-04-20T07:09:32.000Z,1022.7
2023-04-20T07:10:48.000Z,1022.7
2023-04-20T07:12:04.000Z,1022.7
2023-04-20T07:13:20.000Z,1022.7
2023-04-20T07:14:36.000Z,1022.7
2023-04-20T07:15:52.000Z,1022.7
2023-04-20T07:17:08.000Z,1022.7
2023-04-20T07:18:24.000Z,1022.7
2023-04-20T07:19:40.000Z,1022.7
2023-04-20T07:20:55.000Z,1022.8
2023-04-20T07:22:10.000Z,1022.9
2023-04-20T07:23:25.000Z,1022.8
2023-04-20T07:24:41.000Z,1022.8
2023-04-20T07:25:57.000Z,1022.7
2023-04-20T07:27:14.000Z,1022.7
2023-04-20T07:28:30.000Z,1022.7
2023-04-20T07:29:46.000Z,1022.8
2023-04-20T07:31:02.000Z,1022.8
2023-04-20T07:32:18.000Z,1022.7
2023-04-20T07:33:34.000Z,1022.8
2023-04-20T07:34:50.000Z,1022.7
2023-04-20T07:36:07.000Z,1022.8
2023-04-20T07:37:23.000Z,1022.7
2023-04-20T07:38:39.000Z,1022.8
2023-04-20T07:39:54.000Z,1022.7
2023-04-20T07:41:10.000Z,1022.8
2023-04-20T07:42:26.000Z,1022.7
2023-04-20T07:43:42.000Z,1022.7
2023-04-20T07:44:59.327Z,1022.8
2023-04-20T07:47:31.000Z,1022.8
2023-04-20T07:48:47.000Z,1022.8
2023-04-20T07:50:02.000Z,1022.9
2023-04-20T07:51:17.000Z,1022.8
2023-04-20T07:52:33.000Z,1022.9
2023-04-20T07:53:48.000Z,1022.9
2023-04-20T07:55:04.000Z,1022.8
2023-04-20T07:56:20.000Z,1022.8
2023-04-20T07:57:36.000Z,1022.8
2023-04-20T07:58:52.000Z,1022.8
2023-04-20T08:00:08.000Z,1022.7
2023-04-20T08:01:25.000Z,1022.8
2023-04-20T08:02:41.000Z,1022.8
2023-04-20T08:03:57.000Z,1022.7
2023-04-20T08:05:13.000Z,1022.8
2023-04-20T08:06:29.000Z,1022.9
2023-04-20T08:07:45.000Z,1022.8
2023-04-20T08:09:01.000Z,1022.8
2023-04-20T08:10:17.000Z,1022.8
2023-04-20T08:11:33.475Z,1022.9
2023-04-20T08:12:49.000Z,1022.9
2023-04-20T08:14:05.000Z,1022.8
2023-04-20T08:15:21.000Z,1022.8
2023-04-20T08:16:37.000Z,1022.8
2023-04-20T08:17:53.000Z,1022.8
2023-04-20T08:19:09.000Z,1022.8
2023-04-20T08:20:24.000Z,1022.9
2023-04-20T08:21:40.000Z,1022.8
2023-04-20T08:22:56.000Z,1022.8
2023-04-20T08:24:12.000Z,1022.9
2023-04-20T08:25:28.000Z,1022.9
2023-04-20T08:26:45.000Z,1022.8
2023-04-20T08:28:01.000Z,1022.8
2023-04-20T08:29:17.000Z,1022.8
2023-04-20T08:30:33.000Z,1022.7
2023-04-20T08:31:49.000Z,1022.8
2023-04-20T08:33:05.000Z,1022.7
2023-04-20T08:34:21.000Z,1022.8
2023-04-20T08:35:38.000Z,1022.7
2023-04-20T08:36:53.000Z,1022.7
2023-04-20T08:38:09.000Z,1022.6
2023-04-20T08:39:25.000Z,1022.7
2023-04-20T08:40:41.000Z,1022.7
2023-04-20T08:41:57.000Z,1022.8
2023-04-20T08:43:13.000Z,1022.7
2023-04-20T08:44:30.000Z,1022.8
2023-04-20T08:45:45.000Z,1022.7
2023-04-20T08:47:00.000Z,1022.7
2023-04-20T08:48:16.000Z,1022.8
2023-04-20T08:49:31.000Z,1022.8
2023-04-20T08:50:46.000Z,1022.8
2023-04-20T08:52:03.000Z,1022.9
2023-04-20T08:53:19.000Z,1022.8
2023-04-20T08:54:35.000Z,1022.7
2023-04-20T08:55:51.000Z,1022.9
2023-04-20T08:57:07.000Z,1022.8
2023-04-20T08:58:23.000Z,1022.8
2023-04-20T08:59:39.000Z,1022.9
2023-04-20T09:00:56.000Z,1022.9
2023-04-20T09:02:12.000Z,1023
2023-04-20T09:03:28.000Z,1023.1
2023-04-20T09:04:44.000Z,1023
2023-04-20T09:06:00.000Z,1023.1
2023-04-20T09:07:15.000Z,1023.1
2023-04-20T09:08:31.000Z,1023.1
2023-04-20T09:09:48.000Z,1023.1
2023-04-20T09:11:04.000Z,1023.1
2023-04-20T09:12:20.000Z,1023.1
2023-04-20T09:13:36.000Z,1023.1
2023-04-20T09:16:08.000Z,1023.1
2023-04-20T09:17:24.000Z,1023.1
2023-04-20T09:18:39.000Z,1023.1
2023-04-20T09:19:54.000Z,1023
2023-04-20T09:21:09.000Z,1023.1
2023-04-20T09:22:25.000Z,1023.2
2023-04-20T09:23:41.000Z,1023.2
2023-04-20T09:24:57.000Z,1023.2
2023-04-20T09:26:14.000Z,1023.3
2023-04-20T09:27:30.000Z,1023.2
2023-04-20T09:28:46.000Z,1023.1
2023-04-20T09:30:02.000Z,1023.2
2023-04-20T09:31:18.000Z,1023.2
2023-04-20T09:32:34.000Z,1023.2
2023-04-20T09:33:49.000Z,1023.2
2023-04-20T09:35:06.000Z,1023.2
2023-04-20T09:36:22.000Z,1023.1
2023-04-20T09:37:38.000Z,1023.1
2023-04-20T09:38:54.000Z,1023.2
2023-04-20T09:40:10.000Z,1023.3
2023-04-20T09:41:26.000Z,1023.3
2023-04-20T09:42:42.000Z,1023.3
2023-04-20T09:43:59.000Z,1023.2
2023-04-20T09:45:15.000Z,1023.3
2023-04-20T09:46:30.000Z,1023.2
2023-04-20T09:47:45.000Z,1023.2
2023-04-20T09:49:01.000Z,1023.2
2023-04-20T09:50:17.000Z,1023.2
2023-04-20T09:51:34.000Z,1023.2
2023-04-20T09:52:49.000Z,1023.2
2023-04-20T09:54:04.000Z,1023.2
2023-04-20T09:55:20.000Z,1023.1
2023-04-20T09:56:36.000Z,1023.2
2023-04-20T09:57:52.000Z,1023.2
2023-04-20T09:59:08.000Z,1023.1
2023-04-20T10:00:25.000Z,1023.1
2023-04-20T10:01:41.000Z,1023.1
2023-04-20T10:02:57.000Z,1023.1
2023-04-20T10:04:13.000Z,1023.2
2023-04-20T10:05:29.000Z,1023.1
2023-04-20T10:06:45.000Z,1023.2
2023-04-20T10:08:01.000Z,1023.3
2023-04-20T10:09:18.000Z,1023.3
2023-04-20T10:10:33.000Z,1023.2
2023-04-20T10:11:49.667Z,1023.2
2023-04-20T10:13:05.000Z,1023.2
2023-04-20T10:14:21.000Z,1023.2
2023-04-20T10:15:37.000Z,1023.2
2023-04-20T10:16:54.000Z,1023.2
2023-04-20T10:18:10.000Z,1023.2
2023-04-20T10:19:25.000Z,1023.2
2023-04-20T10:20:40.000Z,1023.3
2023-04-20T10:21:55.000Z,1023.2
2023-04-20T10:23:10.000Z,1023.3
2023-04-20T10:24:26.000Z,1023.2
2023-04-20T10:25:43.000Z,1023.2
2023-04-20T10:26:59.000Z,1023.2
2023-04-20T10:28:15.000Z,1023.1
2023-04-20T10:29:31.000Z,1023.1
2023-04-20T10:30:47.948Z,1023.1
2023-04-20T10:32:03.000Z,1023.3
2023-04-20T10:33:19.000Z,1023
2023-04-20T10:34:36.000Z,1023.1
2023-04-20T10:35:52.000Z,1023.2
2023-04-20T10:37:08.000Z,1023.1
2023-04-20T10:38:24.000Z,1023.1
2023-04-20T10:39:39.000Z,1023.1
2023-04-20T10:40:55.000Z,1023
2023-04-20T10:43:28.000Z,1023
2023-04-20T10:44:44.000Z,1023
2023-04-20T10:46:00.000Z,1023
2023-04-20T10:47:16.000Z,1023.1
2023-04-20T10:48:32.984Z,1023.1
2023-04-20T10:49:47.000Z,1023.1
2023-04-20T10:51:03.000Z,1023
2023-04-20T10:52:19.000Z,1023.1
2023-04-20T10:53:35.000Z,1023.1
2023-04-20T10:54:51.000Z,1023.2
2023-04-20T10:56:07.000Z,1023.2
2023-04-20T10:57:23.000Z,1023.1
2023-04-20T10:58:39.000Z,1023.1
2023-04-20T10:59:56.000Z,1023.1
2023-04-20T11:01:12.000Z,1023.1
2023-04-20T11:02:28.000Z,1023.1
2023-04-20T11:03:44.000Z,1023.1
2023-04-20T11:05:00.000Z,1023.1
2023-04-20T11:06:16.000Z,1023.1
2023-04-20T11:07:31.000Z,1023.1
2023-04-20T11:08:48.000Z,1022.9
2023-04-20T11:10:04.000Z,1023
2023-04-20T11:11:20.000Z,1023.1
2023-04-20T11:12:36.000Z,1023
2023-04-20T11:13:52.000Z,1022.9
2023-04-20T11:15:08.000Z,1023.1
2023-04-20T11:16:24.000Z,1023
2023-04-20T11:17:39.000Z,1023
2023-04-20T11:18:54.000Z,1023
2023-04-20T11:20:09.000Z,1022.9
2023-04-20T11:21:25.000Z,1023
2023-04-20T11:22:41.000Z,1022.9
2023-04-20T11:23:57.000Z,1022.8
2023-04-20T11:25:14.000Z,1022.8
2023-04-20T11:26:30.000Z,1022.8
2023-04-20T11:27:46.000Z,1022.8
2023-04-20T11:29:02.000Z,1022.8
2023-04-20T11:30:18.000Z,1022.7
2023-04-20T11:31:34.000Z,1022.8
2023-04-20T11:32:50.000Z,1022.8
2023-04-20T11:34:07.000Z,1022.7
2023-04-20T11:35:23.000Z,1022.6
2023-04-20T11:36:38.000Z,1022.7
2023-04-20T11:37:54.000Z,1022.7
2023-04-20T11:39:10.000Z,1022.6
2023-04-20T11:40:26.000Z,1022.7
2023-04-20T11:41:43.000Z,1022.7
2023-04-20T11:42:59.000Z,1022.8
2023-04-20T11:44:15.000Z,1022.7
2023-04-20T11:45:30.000Z,1022.7
2023-04-20T11:46:45.000Z,1022.7
2023-04-20T11:48:01.000Z,1022.7
2023-04-20T11:49:16.000Z,1022.7
2023-04-20T11:50:32.000Z,1022.6
2023-04-20T11:51:47.000Z,1022.7
2023-04-20T11:53:02.000Z,1022.6
2023-04-20T11:54:18.000Z,1022.7
2023-04-20T11:55:34.000Z,1022.7
2023-04-20T11:56:50.000Z,1022.8
2023-04-20T11:58:07.262Z,1022.8
2023-04-20T11:59:23.396Z,1022.8
2023-04-20T12:00:39.000Z,1022.8
2023-04-20T12:01:55.000Z,1022.8
2023-04-20T12:03:11.000Z,1022.7
2023-04-20T12:04:27.000Z,1022.8
2023-04-20T12:05:43.000Z,1022.9
2023-04-20T12:07:00.000Z,1022.8
2023-04-20T12:08:16.000Z,1022.7
2023-04-20T12:09:31.000Z,1022.7
2023-04-20T12:10:47.000Z,1022.8
2023-04-20T12:12:03.000Z,1022.8
2023-04-20T12:13:19.000Z,1022.8
2023-04-20T12:14:35.000Z,1022.8
2023-04-20T12:15:52.000Z,1022.7
2023-04-20T12:17:08.000Z,1022.7
2023-04-20T12:18:23.000Z,1022.7
2023-04-20T12:19:38.000Z,1022.7
2023-04-20T12:20:54.000Z,1022.7
2023-04-20T12:22:10.000Z,1022.7
2023-04-20T12:23:26.000Z,1022.6
2023-04-20T12:24:43.000Z,1022.7
2023-04-20T12:25:59.510Z,1022.7
2023-04-20T12:27:15.000Z,1022.8
2023-04-20T12:28:31.000Z,1022.7
2023-04-20T12:29:47.000Z,1022.7
2023-04-20T12:31:03.000Z,1022.6
2023-04-20T12:32:20.000Z,1022.7
2023-04-20T12:33:36.000Z,1022.7
2023-04-20T12:34:52.000Z,1022.6
2023-04-20T12:36:07.000Z,1022.6
2023-04-20T12:37:23.000Z,1022.7
2023-04-20T12:38:39.000Z,1022.7
2023-04-20T12:39:55.000Z,1022.7
2023-04-20T12:41:12.000Z,1022.6
2023-04-20T12:42:28.000Z,1022.6
2023-04-20T12:43:44.000Z,1022.6
2023-04-20T12:44:59.000Z,1022.5
2023-04-20T12:46:14.000Z,1022.6
2023-04-20T12:47:29.000Z,1022.5
2023-04-20T12:48:44.000Z,1022.6
2023-04-20T12:50:00.000Z,1022.5
2023-04-20T12:51:15.000Z,1022.5
2023-04-20T12:52:31.000Z,1022.5
2023-04-20T12:53:47.000Z,1022.5
2023-04-20T12:55:03.000Z,1022.5
2023-04-20T12:56:19.000Z,1022.5
2023-04-20T12:57:36.000Z,1022.5
2023-04-20T12:58:52.000Z,1022.5
2023-04-20T13:00:08.000Z,1022.5
2023-04-20T13:01:24.725Z,1022.5
2023-04-20T13:02:40.866Z,1022.5
2023-04-20T13:03:56.000Z,1022.4
2023-04-20T13:05:12.000Z,1022.6
2023-04-20T13:06:29.000Z,1022.5
2023-04-20T13:07:44.000Z,1022.5
2023-04-20T13:09:00.000Z,1022.5
2023-04-20T13:10:16.000Z,1022.4
2023-04-20T13:11:32.000Z,1022.4
2023-04-20T13:12:48.000Z,1022.3
2023-04-20T13:14:04.000Z,1022.4
2023-04-20T13:15:21.337Z,1022.4
2023-04-20T13:16:36.000Z,1022.3
2023-04-20T13:17:51.000Z,1022.4
2023-04-20T13:19:06.000Z,1022.4
2023-04-20T13:20:21.000Z,1022.3
2023-04-20T13:21:37.000Z,1022.3
2023-04-20T13:22:54.000Z,1022.4
2023-04-20T13:24:10.000Z,1022.3
2023-04-20T13:25:26.000Z,1022.3
2023-04-20T13:26:42.000Z,1022.3
2023-04-20T13:27:58.000Z,1022.3
2023-04-20T13:29:14.000Z,1022.3
2023-04-20T13:30:30.000Z,1022.3
2023-04-20T13:31:47.000Z,1022.3
2023-04-20T13:33:03.000Z,1022.3
2023-04-20T13:34:19.595Z,1022.2
2023-04-20T13:35:35.000Z,1022.3
2023-04-20T13:36:50.000Z,1022.2
2023-04-20T13:38:06.000Z,1022.3
2023-04-20T13:39:22.000Z,1022.3
2023-04-20T13:40:39.000Z,1022.3
2023-04-20T13:41:55.000Z,1022.2
2023-04-20T13:43:11.000Z,1022.2
2023-04-20T13:44:27.000Z,1022.2
2023-04-20T13:45:42.000Z,1022.2
2023-04-20T13:46:57.000Z,1022.2
2023-04-20T13:48:13.000Z,1022.2
2023-04-20T13:49:29.000Z,1022.2
2023-04-20T13:50:44.000Z,1022.1
2023-04-20T13:51:59.000Z,1022.2
2023-04-20T13:53:15.000Z,1022.2
2023-04-20T13:54:31.000Z,1022.2
2023-04-20T13:55:47.000Z,1022.2
2023-04-20T13:57:04.000Z,1022.2
2023-04-20T13:58:20.000Z,1022.1
2023-04-20T13:59:36.000Z,1022.1
2023-04-20T14:00:52.000Z,1022
2023-04-20T14:02:08.000Z,1022
2023-04-20T14:03:25.060Z,1022.1
2023-04-20T14:04:40.000Z,1022.1
2023-04-20T14:05:57.000Z,1022
2023-04-20T14:07:13.000Z,1022
2023-04-20T14:08:28.659Z,1021.9
2023-04-20T14:09:44.000Z,1021.9
2023-04-20T14:11:00.000Z,1021.9
2023-04-20T14:12:16.000Z,1021.9
2023-04-20T14:13:33.000Z,1021.8
2023-04-20T14:14:49.000Z,1021.9
2023-04-20T14:16:05.000Z,1021.9
2023-04-20T14:17:20.000Z,1021.9
2023-04-20T14:18:35.865Z,1021.8
2023-04-20T14:19:51.000Z,1021.8
2023-04-20T14:21:06.000Z,1021.9
2023-04-20T14:22:22.000Z,1021.8
2023-04-20T14:23:38.000Z,1021.8
2023-04-20T14:24:54.000Z,1021.8
2023-04-20T14:26:10.000Z,1021.8
2023-04-20T14:27:26.923Z,1021.8
2023-04-20T14:28:42.000Z,1021.8
2023-04-20T14:29:58.000Z,1021.8
2023-04-20T14:31:15.362Z,1021.8
2023-04-20T14:32:31.000Z,1021.7
2023-04-20T14:33:47.000Z,1021.8
2023-04-20T14:35:03.000Z,1021.8
2023-04-20T14:36:19.000Z,1021.7
2023-04-20T14:37:35.000Z,1021.8
2023-04-20T14:38:51.000Z,1021.7
2023-04-20T14:40:07.000Z,1021.7
2023-04-20T14:41:23.000Z,1021.7
2023-04-20T14:42:39.000Z,1021.8
2023-04-20T14:43:55.000Z,1021.7
2023-04-20T14:45:11.000Z,1021.7
2023-04-20T14:46:27.000Z,1021.6
2023-04-20T14:47:43.000Z,1021.6
2023-04-20T14:48:58.000Z,1021.6
2023-04-20T14:50:13.000Z,1021.6
2023-04-20T14:51:28.000Z,1021.6
2023-04-20T14:52:44.000Z,1021.6
2023-04-20T14:54:01.076Z,1021.5
2023-04-20T14:55:16.000Z,1021.5
2023-04-20T14:56:33.000Z,1021.6
2023-04-20T14:57:49.000Z,1021.6
2023-04-20T14:59:05.652Z,1021.6
2023-04-20T15:00:21.000Z,1021.6
2023-04-20T15:01:37.949Z,1021.6
2023-04-20T15:02:53.000Z,1021.5
2023-04-20T15:04:10.000Z,1021.6
2023-04-20T15:05:26.000Z,1021.6
2023-04-20T15:06:42.000Z,1021.6
2023-04-20T15:07:57.000Z,1021.5
2023-04-20T15:09:13.000Z,1021.6
2023-04-20T15:10:29.000Z,1021.5
2023-04-20T15:11:45.000Z,1021.6
2023-04-20T15:13:02.000Z,1021.5
2023-04-20T15:14:18.000Z,1021.5
2023-04-20T15:15:34.000Z,1021.5
2023-04-20T15:16:49.000Z,1021.5
2023-04-20T15:18:04.000Z,1021.5
2023-04-20T15:19:20.000Z,1021.5
2023-04-20T15:20:35.000Z,1021.5
2023-04-20T15:21:51.000Z,1021.5
2023-04-20T15:23:07.000Z,1021.5
2023-04-20T15:24:23.663Z,1021.5
2023-04-20T15:25:39.000Z,1021.6
2023-04-20T15:26:55.000Z,1021.5
2023-04-20T15:28:11.000Z,1021.6
2023-04-20T15:29:28.000Z,1021.4
2023-04-20T15:30:44.000Z,1021.4
2023-04-20T15:32:00.000Z,1021.5
2023-04-20T15:33:16.000Z,1021.5
2023-04-20T15:34:32.000Z,1021.4
2023-04-20T15:35:48.000Z,1021.5
2023-04-20T15:37:04.000Z,1021.5
2023-04-20T15:38:20.000Z,1021.5
2023-04-20T15:39:36.000Z,1021.5
2023-04-20T15:40:52.000Z,1021.5
2023-04-20T15:42:08.000Z,1021.5
2023-04-20T15:43:24.000Z,1021.6
2023-04-20T15:44:40.000Z,1021.4
2023-04-20T15:45:56.000Z,1021.5
2023-04-20T15:47:12.000Z,1021.4
2023-04-20T15:48:27.000Z,1021.4
2023-04-20T15:49:42.655Z,1021.4
2023-04-20T15:50:57.000Z,1021.4
2023-04-20T15:52:13.963Z,1021.4
2023-04-20T15:53:29.000Z,1021.4
2023-04-20T15:54:46.000Z,1021.5
2023-04-20T15:56:02.000Z,1021.4
2023-04-20T15:57:18.000Z,1021.5
2023-04-20T15:58:34.000Z,1021.4
2023-04-20T15:59:50.000Z,1021.4
2023-04-20T16:01:06.000Z,1021.4
2023-04-20T16:02:22.000Z,1021.4
2023-04-20T16:03:39.000Z,1021.3